createdAt,value
2019-05-05T00:00:06.116Z,6.91
2019-05-05T00:01:06.106Z,6.94
2019-05-05T00:02:06.106Z,6.87
2019-05-05T00:03:06.093Z,6.94
2019-05-05T00:04:06.090Z,6.92
2019-05-05T00:05:08.561Z,6.94
2019-05-05T00:06:06.050Z,6.89
2019-05-05T00:07:06.043Z,6.84
2019-05-05T00:08:06.036Z,6.77
2019-05-05T00:09:06.047Z,6.77
2019-05-05T00:10:06.005Z,6.81
2019-05-05T00:11:06.004Z,6.74
2019-05-05T00:12:05.991Z,6.73
2019-05-05T00:13:05.980Z,6.70
2019-05-05T00:14:05.991Z,6.71
2019-05-05T00:15:05.950Z,6.66
2019-05-05T00:16:05.943Z,6.73
2019-05-05T00:17:05.930Z,6.70
2019-05-05T00:18:05.918Z,6.62
2019-05-05T00:19:05.920Z,6.67
2019-05-05T00:20:05.896Z,6.62
2019-05-05T00:21:05.883Z,6.64
2019-05-05T00:22:05.879Z,6.64
2019-05-05T00:23:05.876Z,6.66
2019-05-05T00:24:05.867Z,6.61
2019-05-05T00:25:05.865Z,6.69
2019-05-05T00:26:05.840Z,6.66
2019-05-05T00:27:05.824Z,6.61
2019-05-05T00:28:05.807Z,6.61
2019-05-05T00:29:05.826Z,6.70
2019-05-05T00:30:05.796Z,6.61
2019-05-05T00:31:05.780Z,6.61
2019-05-05T00:32:05.764Z,6.62
2019-05-05T00:33:05.760Z,6.56
2019-05-05T00:34:05.744Z,6.66
2019-05-05T00:35:05.753Z,6.64
2019-05-05T00:36:07.813Z,6.71
2019-05-05T00:37:05.715Z,6.62
2019-05-05T00:38:05.698Z,6.61
2019-05-05T00:39:05.686Z,6.59
2019-05-05T00:40:05.690Z,6.56
2019-05-05T00:41:05.665Z,6.54
2019-05-05T00:42:05.654Z,6.64
2019-05-05T00:43:05.644Z,6.61
2019-05-05T00:44:05.637Z,6.55
2019-05-05T00:45:05.638Z,6.52
2019-05-05T00:46:05.617Z,6.48
2019-05-05T00:47:05.623Z,6.49
2019-05-05T00:48:05.604Z,6.40
2019-05-05T00:49:05.576Z,6.37
2019-05-05T00:50:05.587Z,6.36
2019-05-05T00:51:05.559Z,6.41
2019-05-05T00:52:05.544Z,6.37
2019-05-05T00:53:05.559Z,6.36
2019-05-05T00:54:05.526Z,6.34
2019-05-05T00:55:05.518Z,6.37
2019-05-05T00:56:05.498Z,6.40
2019-05-05T00:57:05.488Z,6.40
2019-05-05T00:58:05.478Z,6.37
2019-05-05T00:59:05.470Z,6.31
2019-05-05T01:00:05.478Z,6.37
2019-05-05T01:01:05.466Z,6.40
2019-05-05T01:02:05.432Z,6.36
2019-05-05T01:03:05.425Z,6.33
2019-05-05T01:04:05.422Z,6.33
2019-05-05T01:05:05.418Z,6.33
2019-05-05T01:06:05.397Z,6.21
2019-05-05T01:07:05.390Z,6.27
2019-05-05T01:08:05.376Z,6.15
2019-05-05T01:09:05.362Z,6.15
2019-05-05T01:10:05.363Z,6.18
2019-05-05T01:11:05.352Z,6.14
2019-05-05T01:12:05.323Z,6.11
2019-05-05T01:13:05.318Z,6.03
2019-05-05T01:14:05.299Z,6.11
2019-05-05T01:15:05.292Z,6.12
2019-05-05T01:16:05.289Z,6.08
2019-05-05T01:17:05.388Z,6.09
2019-05-05T01:18:05.254Z,6.18
2019-05-05T01:19:05.243Z,6.08
2019-05-05T01:20:06.961Z,5.99
2019-05-05T01:21:05.268Z,5.83
2019-05-05T01:22:05.230Z,5.83
2019-05-05T01:23:05.199Z,5.86
2019-05-05T01:24:05.287Z,5.94
2019-05-05T01:25:05.473Z,5.91
2019-05-05T01:26:05.314Z,5.94
2019-05-05T01:27:05.156Z,5.94
2019-05-05T01:28:05.164Z,5.91
2019-05-05T01:29:05.357Z,5.99
2019-05-05T01:30:05.128Z,5.91
2019-05-05T01:31:05.666Z,5.90
2019-05-05T01:32:05.171Z,5.90
2019-05-05T01:33:05.529Z,5.83
2019-05-05T01:34:05.078Z,5.85
2019-05-05T01:35:05.429Z,5.85
2019-05-05T01:36:05.065Z,5.89
2019-05-05T01:37:05.063Z,5.97
2019-05-05T01:38:05.045Z,5.81
2019-05-05T01:39:05.024Z,5.79
2019-05-05T01:40:05.103Z,5.90
2019-05-05T01:41:05.014Z,5.85
2019-05-05T01:42:05.055Z,5.85
2019-05-05T01:43:05.415Z,5.85
2019-05-05T01:44:05.035Z,5.81
2019-05-05T01:45:04.956Z,5.81
2019-05-05T01:46:05.163Z,5.74
2019-05-05T01:47:05.393Z,5.61
2019-05-05T01:48:05.012Z,5.57
2019-05-05T01:49:05.470Z,5.56
2019-05-05T01:50:17.736Z,5.54
2019-05-05T01:51:05.902Z,5.61
2019-05-05T01:52:04.899Z,5.61
2019-05-05T01:53:04.883Z,5.61
2019-05-05T01:54:05.295Z,5.64
2019-05-05T01:55:05.314Z,5.75
2019-05-05T01:56:05.059Z,5.60
2019-05-05T01:57:05.484Z,5.61
2019-05-05T01:58:04.906Z,5.58
2019-05-05T01:59:05.258Z,5.58
2019-05-05T02:00:04.804Z,5.64
2019-05-05T02:01:05.085Z,5.71
2019-05-05T02:02:04.800Z,5.68
2019-05-05T02:03:04.765Z,5.76
2019-05-05T02:04:05.513Z,5.75
2019-05-05T02:05:04.779Z,5.74
2019-05-05T02:06:05.339Z,5.72
2019-05-05T02:07:05.430Z,5.68
2019-05-05T02:08:05.135Z,5.67
2019-05-05T02:09:05.269Z,5.58
2019-05-05T02:10:06.015Z,5.67
2019-05-05T02:11:05.317Z,5.68
2019-05-05T02:12:05.239Z,5.72
2019-05-05T02:13:04.861Z,5.63
2019-05-05T02:14:05.166Z,5.71
2019-05-05T02:15:04.640Z,5.78
2019-05-05T02:16:04.843Z,5.82
2019-05-05T02:17:05.155Z,5.81
2019-05-05T02:18:04.716Z,5.86
2019-05-05T02:19:05.151Z,5.78
2019-05-05T02:20:05.253Z,5.83
2019-05-05T02:21:05.120Z,5.76
2019-05-05T02:22:05.250Z,5.71
2019-05-05T02:23:04.747Z,5.68
2019-05-05T02:24:05.205Z,5.67
2019-05-05T02:25:04.511Z,5.68
2019-05-05T02:26:04.725Z,5.74
2019-05-05T02:27:05.133Z,5.61
2019-05-05T02:28:04.579Z,5.60
2019-05-05T02:29:04.994Z,5.54
2019-05-05T02:30:06.340Z,5.51
2019-05-05T02:31:05.549Z,5.49
2019-05-05T02:32:06.237Z,5.42
2019-05-05T02:33:06.311Z,5.38
2019-05-05T02:34:05.455Z,5.36
2019-05-05T02:35:06.411Z,5.28
2019-05-05T02:36:05.570Z,5.21
2019-05-05T02:37:05.507Z,5.27
2019-05-05T02:38:06.445Z,5.21
2019-05-05T02:39:05.438Z,5.31
2019-05-05T02:40:07.606Z,5.38
2019-05-05T02:41:05.253Z,5.33
2019-05-05T02:42:05.691Z,5.31
2019-05-05T02:43:05.534Z,5.27
2019-05-05T02:44:05.093Z,5.20
2019-05-05T02:45:05.396Z,5.27
2019-05-05T02:46:05.554Z,5.24
2019-05-05T02:47:04.909Z,5.28
2019-05-05T02:48:05.991Z,5.17
2019-05-05T02:49:05.383Z,5.07
2019-05-05T02:50:05.202Z,4.99
2019-05-05T02:51:06.979Z,5.00
2019-05-05T02:52:04.965Z,5.02
2019-05-05T02:53:04.256Z,5.04
2019-05-05T02:54:04.520Z,5.04
2019-05-05T02:55:04.224Z,4.96
2019-05-05T02:56:04.347Z,4.92
2019-05-05T02:57:04.675Z,4.85
2019-05-05T02:58:04.162Z,4.78
2019-05-05T02:59:04.417Z,4.73
2019-05-05T03:00:04.543Z,4.72
2019-05-05T03:01:04.887Z,4.69
2019-05-05T03:02:04.423Z,4.69
2019-05-05T03:03:04.494Z,4.67
2019-05-05T03:04:04.080Z,4.67
2019-05-05T03:05:04.280Z,4.69
2019-05-05T03:06:04.485Z,4.70
2019-05-05T03:07:04.755Z,4.67
2019-05-05T03:08:04.806Z,4.66
2019-05-05T03:09:04.496Z,4.70
2019-05-05T03:10:04.011Z,4.58
2019-05-05T03:11:03.997Z,4.62
2019-05-05T03:12:04.775Z,4.62
2019-05-05T03:13:04.897Z,4.66
2019-05-05T03:14:04.176Z,4.63
2019-05-05T03:15:04.316Z,4.65
2019-05-05T03:16:03.944Z,4.66
2019-05-05T03:17:04.294Z,4.67
2019-05-05T03:18:04.206Z,4.73
2019-05-05T03:19:03.925Z,4.77
2019-05-05T03:20:04.234Z,4.75
2019-05-05T03:21:07.121Z,4.77
2019-05-05T03:22:03.887Z,4.84
2019-05-05T03:23:04.252Z,4.80
2019-05-05T03:24:03.908Z,4.75
2019-05-05T03:25:04.637Z,4.75
2019-05-05T03:26:03.991Z,4.69
2019-05-05T03:27:03.967Z,4.77
2019-05-05T03:28:04.426Z,4.73
2019-05-05T03:29:04.746Z,4.65
2019-05-05T03:30:05.061Z,4.63
2019-05-05T03:31:04.992Z,4.72
2019-05-05T03:32:05.493Z,4.67
2019-05-05T03:33:05.393Z,4.78
2019-05-05T03:34:05.983Z,4.73
2019-05-05T03:35:04.266Z,4.82
2019-05-05T03:36:03.724Z,4.77
2019-05-05T03:37:04.335Z,4.80
2019-05-05T03:38:03.923Z,4.91
2019-05-05T03:39:05.175Z,4.92
2019-05-05T03:40:04.267Z,5.06
2019-05-05T03:41:03.689Z,5.04
2019-05-05T03:42:03.698Z,4.94
2019-05-05T03:43:04.194Z,4.86
2019-05-05T03:44:04.728Z,4.85
2019-05-05T03:45:04.268Z,4.96
2019-05-05T03:46:04.422Z,4.82
2019-05-05T03:47:03.673Z,4.78
2019-05-05T03:48:04.600Z,4.73
2019-05-05T03:49:04.785Z,4.75
2019-05-05T03:50:04.380Z,4.67
2019-05-05T03:51:16.054Z,4.65
2019-05-05T03:52:04.948Z,4.63
2019-05-05T03:53:04.947Z,4.65
2019-05-05T03:54:04.314Z,4.59
2019-05-05T03:55:03.901Z,4.62
2019-05-05T03:56:03.949Z,4.59
2019-05-05T03:57:03.594Z,4.60
2019-05-05T03:58:04.132Z,4.65
2019-05-05T03:59:04.857Z,4.58
2019-05-05T04:00:04.331Z,4.65
2019-05-05T04:01:04.280Z,4.55
2019-05-05T04:02:03.993Z,4.59
2019-05-05T04:03:04.308Z,4.51
2019-05-05T04:04:03.459Z,4.58
2019-05-05T04:05:04.023Z,4.58
2019-05-05T04:06:04.385Z,4.48
2019-05-05T04:07:04.775Z,4.48
2019-05-05T04:08:03.903Z,4.54
2019-05-05T04:09:04.294Z,4.51
2019-05-05T04:10:03.819Z,4.52
2019-05-05T04:11:03.944Z,4.58
2019-05-05T04:12:04.423Z,4.55
2019-05-05T04:13:04.682Z,4.60
2019-05-05T04:14:03.705Z,4.69
2019-05-05T04:15:03.732Z,4.62
2019-05-05T04:16:04.072Z,4.65
2019-05-05T04:17:03.563Z,4.65
2019-05-05T04:18:03.999Z,4.63
2019-05-05T04:19:03.636Z,4.63
2019-05-05T04:20:03.923Z,4.65
2019-05-05T04:21:04.004Z,4.75
2019-05-05T04:22:04.238Z,4.66
2019-05-05T04:23:03.862Z,4.65
2019-05-05T04:24:04.039Z,4.69
2019-05-05T04:25:04.629Z,4.77
2019-05-05T04:26:03.827Z,4.77
2019-05-05T04:27:04.020Z,4.88
2019-05-05T04:28:04.382Z,4.89
2019-05-05T04:29:05.280Z,4.91
2019-05-05T04:30:03.814Z,5.00
2019-05-05T04:31:04.186Z,4.97
2019-05-05T04:32:04.658Z,4.94
2019-05-05T04:33:03.781Z,4.94
2019-05-05T04:34:04.200Z,5.04
2019-05-05T04:35:03.687Z,5.00
2019-05-05T04:36:03.866Z,4.97
2019-05-05T04:37:04.117Z,5.00
2019-05-05T04:38:04.746Z,4.94
2019-05-05T04:39:03.756Z,5.00
2019-05-05T04:40:04.168Z,5.02
2019-05-05T04:41:03.583Z,5.03
2019-05-05T04:42:04.730Z,4.97
2019-05-05T04:43:03.887Z,5.04
2019-05-05T04:44:04.022Z,5.03
2019-05-05T04:45:04.242Z,5.00
2019-05-05T04:46:04.534Z,5.03
2019-05-05T04:47:03.862Z,4.94
2019-05-05T04:48:04.318Z,5.02
2019-05-05T04:49:03.530Z,5.02
2019-05-05T04:50:04.305Z,5.00
2019-05-05T04:51:04.723Z,4.97
2019-05-05T04:52:04.098Z,4.97
2019-05-05T04:53:04.542Z,4.96
2019-05-05T04:54:03.821Z,4.99
2019-05-05T04:55:03.886Z,5.06
2019-05-05T04:56:04.192Z,5.02
2019-05-05T04:57:04.512Z,5.07
2019-05-05T04:58:04.617Z,5.06
2019-05-05T04:59:04.038Z,5.03
2019-05-05T05:00:04.204Z,4.97
2019-05-05T05:01:04.665Z,5.00
2019-05-05T05:02:03.986Z,5.00
2019-05-05T05:03:04.441Z,5.03
2019-05-05T05:04:03.749Z,5.02
2019-05-05T05:05:04.039Z,4.99
2019-05-05T05:06:04.159Z,4.99
2019-05-05T05:07:04.670Z,5.07
2019-05-05T05:08:03.718Z,5.06
2019-05-05T05:09:04.053Z,5.00
2019-05-05T05:10:04.443Z,5.00
2019-05-05T05:11:03.648Z,5.04
2019-05-05T05:12:04.015Z,5.12
2019-05-05T05:13:04.510Z,5.10
2019-05-05T05:14:03.880Z,4.99
2019-05-05T05:15:04.338Z,5.07
2019-05-05T05:16:04.547Z,5.13
2019-05-05T05:17:03.492Z,4.97
2019-05-05T05:18:04.085Z,5.06
2019-05-05T05:19:04.322Z,5.13
2019-05-05T05:20:03.736Z,5.12
2019-05-05T05:21:03.983Z,5.20
2019-05-05T05:22:04.832Z,5.20
2019-05-05T05:23:03.678Z,5.21
2019-05-05T05:24:03.975Z,5.24
2019-05-05T05:25:04.470Z,5.21
2019-05-05T05:26:04.844Z,5.27
2019-05-05T05:27:04.854Z,5.24
2019-05-05T05:28:04.185Z,5.22
2019-05-05T05:29:04.444Z,5.36
2019-05-05T05:30:04.521Z,5.33
2019-05-05T05:31:03.889Z,5.45
2019-05-05T05:32:04.177Z,5.35
2019-05-05T05:33:04.314Z,5.36
2019-05-05T05:34:04.264Z,5.56
2019-05-05T05:35:03.700Z,5.46
2019-05-05T05:36:03.989Z,5.43
2019-05-05T05:37:04.203Z,5.39
2019-05-05T05:38:04.467Z,5.48
2019-05-05T05:39:03.463Z,5.48
2019-05-05T05:40:03.943Z,5.46
2019-05-05T05:41:04.187Z,5.49
2019-05-05T05:42:04.424Z,5.49
2019-05-05T05:43:04.175Z,5.53
2019-05-05T05:44:03.584Z,5.54
2019-05-05T05:45:04.054Z,5.58
2019-05-05T05:46:04.270Z,5.75
2019-05-05T05:47:03.637Z,5.68
2019-05-05T05:48:04.123Z,5.72
2019-05-05T05:49:04.415Z,5.86
2019-05-05T05:50:04.014Z,5.83
2019-05-05T05:51:04.063Z,5.90
2019-05-05T05:52:13.507Z,5.86
2019-05-05T05:53:04.718Z,5.96
2019-05-05T05:54:03.778Z,5.90
2019-05-05T05:55:04.012Z,6.00
2019-05-05T05:56:04.222Z,5.99
2019-05-05T05:57:04.173Z,6.09
2019-05-05T05:58:02.162Z,6.08
2019-05-05T05:59:03.622Z,6.12
2019-05-05T06:00:03.967Z,6.14
2019-05-05T06:01:04.156Z,6.21
2019-05-05T06:02:09.892Z,6.22
2019-05-05T06:03:03.968Z,6.18
2019-05-05T06:04:04.028Z,6.28
2019-05-05T06:05:04.237Z,6.36
2019-05-05T06:06:02.073Z,6.34
2019-05-05T06:07:04.051Z,6.40
2019-05-05T06:08:02.058Z,6.40
2019-05-05T06:09:04.154Z,6.36
2019-05-05T06:10:03.758Z,6.34
2019-05-05T06:11:02.001Z,6.30
2019-05-05T06:12:03.602Z,6.37
2019-05-05T06:13:03.910Z,6.22
2019-05-05T06:14:03.984Z,6.31
2019-05-05T06:15:03.837Z,6.22
2019-05-05T06:16:04.013Z,6.37
2019-05-05T06:17:04.111Z,6.28
2019-05-05T06:18:01.946Z,6.25
2019-05-05T06:19:03.693Z,6.33
2019-05-05T06:20:03.916Z,6.37
2019-05-05T06:21:01.889Z,6.28
2019-05-05T06:22:03.519Z,6.37
2019-05-05T06:23:03.904Z,6.37
2019-05-05T06:24:01.864Z,6.43
2019-05-05T06:25:01.861Z,6.55
2019-05-05T06:26:06.279Z,6.54
2019-05-05T06:27:03.760Z,6.58
2019-05-05T06:28:04.037Z,6.54
2019-05-05T06:29:01.810Z,6.62
2019-05-05T06:30:01.796Z,6.58
2019-05-05T06:31:01.790Z,6.67
2019-05-05T06:32:03.876Z,6.64
2019-05-05T06:33:01.782Z,6.71
2019-05-05T06:34:03.559Z,6.73
2019-05-05T06:35:03.675Z,6.73
2019-05-05T06:36:03.619Z,6.71
2019-05-05T06:37:01.715Z,6.66
2019-05-05T06:38:01.735Z,6.71
2019-05-05T06:39:01.698Z,6.74
2019-05-05T06:40:03.664Z,6.85
2019-05-05T06:41:01.673Z,6.80
2019-05-05T06:42:01.663Z,6.87
2019-05-05T06:43:01.683Z,6.88
2019-05-05T06:44:03.574Z,6.95
2019-05-05T06:45:01.633Z,6.95
2019-05-05T06:46:01.623Z,7.02
2019-05-05T06:47:01.636Z,6.99
2019-05-05T06:48:01.613Z,7.06
2019-05-05T06:49:01.577Z,6.99
2019-05-05T06:50:03.577Z,7.15
2019-05-05T06:51:03.827Z,7.13
2019-05-05T06:52:03.852Z,7.24
2019-05-05T06:53:01.559Z,7.24
2019-05-05T06:54:01.523Z,7.17
2019-05-05T06:55:03.628Z,7.28
2019-05-05T06:56:01.500Z,7.13
2019-05-05T06:57:01.491Z,7.27
2019-05-05T06:58:01.489Z,7.20
2019-05-05T06:59:01.468Z,7.25
2019-05-05T07:00:03.499Z,7.43
2019-05-05T07:01:03.483Z,7.39
2019-05-05T07:02:01.431Z,7.43
2019-05-05T07:03:01.432Z,7.45
2019-05-05T07:04:03.358Z,7.46
2019-05-05T07:05:01.397Z,7.50
2019-05-05T07:06:01.399Z,7.49
2019-05-05T07:07:01.386Z,7.53
2019-05-05T07:08:01.366Z,7.53
2019-05-05T07:09:01.375Z,7.63
2019-05-05T07:10:03.614Z,7.71
2019-05-05T07:11:01.364Z,7.72
2019-05-05T07:12:01.319Z,7.82
2019-05-05T07:13:01.308Z,7.82
2019-05-05T07:14:01.331Z,7.85
2019-05-05T07:15:01.287Z,8.00
2019-05-05T07:16:01.280Z,8.00
2019-05-05T07:17:01.267Z,8.07
2019-05-05T07:18:01.679Z,7.97
2019-05-05T07:19:01.248Z,8.08
2019-05-05T07:20:01.243Z,8.08
2019-05-05T07:21:01.218Z,8.11
2019-05-05T07:22:01.213Z,8.20
2019-05-05T07:23:03.022Z,8.26
2019-05-05T07:24:01.200Z,8.22
2019-05-05T07:25:01.182Z,8.37
2019-05-05T07:26:01.175Z,8.40
2019-05-05T07:27:01.166Z,8.36
2019-05-05T07:28:01.154Z,8.40
2019-05-05T07:29:01.130Z,8.30
2019-05-05T07:30:01.126Z,8.33
2019-05-05T07:31:01.129Z,8.44
2019-05-05T07:32:01.113Z,8.40
2019-05-05T07:33:01.090Z,8.52
2019-05-05T07:34:01.075Z,8.55
2019-05-05T07:35:01.074Z,8.62
2019-05-05T07:36:03.977Z,8.71
2019-05-05T07:37:01.061Z,8.61
2019-05-05T07:38:01.041Z,8.63
2019-05-05T07:39:01.025Z,8.66
2019-05-05T07:40:01.025Z,8.74
2019-05-05T07:41:00.996Z,8.74
2019-05-05T07:42:00.987Z,8.79
2019-05-05T07:43:00.972Z,8.74
2019-05-05T07:44:00.975Z,8.79
2019-05-05T07:45:00.972Z,8.74
2019-05-05T07:46:00.944Z,8.86
2019-05-05T07:47:00.929Z,8.94
2019-05-05T07:48:00.919Z,8.95
2019-05-05T07:49:00.913Z,8.96
2019-05-05T07:50:00.915Z,8.89
2019-05-05T07:51:02.863Z,8.86
2019-05-05T07:52:01.001Z,8.96
2019-05-05T07:53:12.213Z,8.92
2019-05-05T07:54:03.652Z,8.92
2019-05-05T07:55:00.853Z,8.91
2019-05-05T07:56:00.831Z,9.05
2019-05-05T07:57:00.815Z,9.04
2019-05-05T07:58:00.804Z,9.02
2019-05-05T07:59:00.800Z,9.02
2019-05-05T08:00:00.796Z,9.13
2019-05-05T08:01:00.804Z,9.15
2019-05-05T08:02:00.793Z,9.13
2019-05-05T08:03:00.765Z,9.24
2019-05-05T08:04:00.741Z,9.32
2019-05-05T08:05:00.740Z,9.33
2019-05-05T08:06:00.720Z,9.42
2019-05-05T08:07:00.708Z,9.42
2019-05-05T08:08:00.737Z,9.39
2019-05-05T08:09:00.685Z,9.35
2019-05-05T08:10:00.683Z,9.43
2019-05-05T08:11:00.665Z,9.48
2019-05-05T08:12:00.668Z,9.47
2019-05-05T08:13:00.644Z,9.43
2019-05-05T08:14:00.622Z,9.47
2019-05-05T08:15:00.621Z,9.46
2019-05-05T08:16:00.608Z,9.53
2019-05-05T08:17:00.588Z,9.47
2019-05-05T08:18:00.610Z,9.48
2019-05-05T08:19:00.572Z,9.47
2019-05-05T08:20:00.568Z,9.53
2019-05-05T08:21:00.558Z,9.68
2019-05-05T08:22:00.532Z,9.58
2019-05-05T08:23:00.533Z,9.58
2019-05-05T08:24:00.517Z,9.61
2019-05-05T08:25:00.513Z,9.51
2019-05-05T08:26:00.493Z,9.51
2019-05-05T08:27:00.528Z,9.56
2019-05-05T08:28:00.470Z,9.56
2019-05-05T08:29:00.462Z,9.64
2019-05-05T08:30:03.071Z,9.71
2019-05-05T08:31:00.477Z,9.66
2019-05-05T08:32:00.426Z,9.57
2019-05-05T08:33:00.422Z,9.60
2019-05-05T08:34:00.405Z,9.60
2019-05-05T08:35:01.077Z,9.66
2019-05-05T08:36:00.396Z,9.65
2019-05-05T08:37:00.373Z,9.69
2019-05-05T08:38:00.358Z,9.76
2019-05-05T08:39:00.348Z,9.75
2019-05-05T08:40:00.338Z,9.86
2019-05-05T08:41:00.348Z,9.86
2019-05-05T08:42:00.334Z,9.89
2019-05-05T08:43:00.304Z,9.91
2019-05-05T08:44:00.300Z,9.89
2019-05-05T08:45:00.280Z,9.90
2019-05-05T08:46:00.316Z,9.86
2019-05-05T08:47:00.271Z,9.74
2019-05-05T08:48:00.257Z,9.61
2019-05-05T08:49:00.245Z,9.48
2019-05-05T08:50:00.232Z,9.48
2019-05-05T08:51:00.225Z,9.53
2019-05-05T08:52:00.211Z,9.64
2019-05-05T08:53:00.223Z,9.60
2019-05-05T08:54:00.189Z,9.58
2019-05-05T08:55:00.178Z,9.75
2019-05-05T08:56:00.180Z,9.76
2019-05-05T08:57:00.156Z,9.87
2019-05-05T08:58:00.150Z,10.11
2019-05-05T08:59:00.131Z,10.17
2019-05-05T09:00:00.131Z,10.34
2019-05-05T09:01:00.230Z,10.40
2019-05-05T09:02:00.109Z,10.42
2019-05-05T09:03:00.080Z,10.48
2019-05-05T09:04:00.084Z,10.53
2019-05-05T09:05:00.082Z,10.63
2019-05-05T09:06:00.073Z,10.61
2019-05-05T09:07:00.051Z,10.78
2019-05-05T09:08:00.028Z,10.79
2019-05-05T09:09:00.029Z,10.89
2019-05-05T09:10:00.008Z,10.81
2019-05-05T09:11:00.001Z,10.71
2019-05-05T09:11:59.988Z,10.56
2019-05-05T09:12:59.967Z,10.61
2019-05-05T09:13:59.961Z,10.55
2019-05-05T09:14:59.952Z,10.36
2019-05-05T09:15:59.935Z,10.30
2019-05-05T09:16:59.935Z,10.22
2019-05-05T09:17:59.935Z,10.04
2019-05-05T09:18:59.903Z,10.02
2019-05-05T09:19:59.894Z,9.94
2019-05-05T09:20:59.888Z,9.96
2019-05-05T09:21:59.881Z,9.90
2019-05-05T09:22:59.852Z,9.89
2019-05-05T09:24:02.598Z,10.01
2019-05-05T09:25:00.836Z,9.97
2019-05-05T09:25:59.831Z,10.08
2019-05-05T09:26:59.815Z,10.11
2019-05-05T09:28:02.967Z,10.22
2019-05-05T09:28:59.793Z,10.33
2019-05-05T09:29:59.771Z,10.36
2019-05-05T09:30:59.770Z,10.45
2019-05-05T09:31:59.768Z,10.48
2019-05-05T09:32:59.766Z,10.67
2019-05-05T09:33:59.735Z,10.82
2019-05-05T09:34:59.723Z,11.11
2019-05-05T09:35:59.712Z,11.06
2019-05-05T09:36:59.703Z,11.19
2019-05-05T09:37:59.688Z,11.18
2019-05-05T09:38:59.680Z,11.00
2019-05-05T09:39:59.668Z,11.02
2019-05-05T09:40:59.649Z,10.91
2019-05-05T09:41:59.659Z,10.76
2019-05-05T09:42:59.637Z,10.88
2019-05-05T09:43:59.619Z,10.78
2019-05-05T09:44:59.623Z,10.76
2019-05-05T09:45:59.609Z,10.79
2019-05-05T09:46:59.589Z,10.78
2019-05-05T09:47:59.610Z,10.68
2019-05-05T09:48:59.566Z,10.67
2019-05-05T09:49:59.554Z,10.67
2019-05-05T09:50:59.542Z,10.68
2019-05-05T09:51:59.528Z,10.63
2019-05-05T09:52:59.535Z,10.74
2019-05-05T09:54:10.941Z,10.79
2019-05-05T09:55:00.494Z,10.82
2019-05-05T09:55:59.488Z,10.78
2019-05-05T09:56:59.479Z,10.71
2019-05-05T09:57:59.476Z,10.73
2019-05-05T09:58:59.457Z,10.68
2019-05-05T09:59:59.443Z,10.52
2019-05-05T10:00:59.432Z,10.47
2019-05-05T10:01:59.416Z,10.55
2019-05-05T10:02:59.424Z,10.74
2019-05-05T10:03:59.398Z,10.79
2019-05-05T10:04:59.388Z,10.81
2019-05-05T10:05:59.385Z,10.86
2019-05-05T10:06:59.373Z,11.02
2019-05-05T10:07:59.364Z,11.19
2019-05-05T10:08:59.362Z,11.32
2019-05-05T10:09:59.344Z,11.25
2019-05-05T10:10:59.315Z,11.36
2019-05-05T10:11:59.313Z,11.52
2019-05-05T10:12:59.309Z,11.62
2019-05-05T10:13:59.290Z,11.70
2019-05-05T10:14:59.272Z,11.86
2019-05-05T10:15:59.270Z,11.90
2019-05-05T10:16:59.255Z,11.91
2019-05-05T10:17:59.263Z,11.98
2019-05-05T10:18:59.262Z,11.83
2019-05-05T10:19:59.220Z,11.83
2019-05-05T10:20:59.211Z,11.82
2019-05-05T10:21:59.197Z,11.78
2019-05-05T10:22:59.194Z,11.90
2019-05-05T10:23:59.168Z,11.91
2019-05-05T10:24:59.162Z,11.79
2019-05-05T10:25:59.145Z,11.82
2019-05-05T10:26:59.143Z,11.96
2019-05-05T10:27:59.136Z,11.98
2019-05-05T10:29:01.208Z,11.94
2019-05-05T10:29:59.112Z,11.98
2019-05-05T10:30:59.099Z,11.90
2019-05-05T10:31:59.083Z,11.83
2019-05-05T10:32:59.100Z,11.94
2019-05-05T10:33:59.068Z,11.94
2019-05-05T10:34:59.047Z,12.02
2019-05-05T10:35:59.032Z,11.94
2019-05-05T10:36:59.027Z,12.16
2019-05-05T10:37:59.012Z,12.16
2019-05-05T10:38:59.028Z,12.29
2019-05-05T10:39:59.000Z,12.38
2019-05-05T10:40:58.983Z,12.46
2019-05-05T10:41:59.015Z,12.65
2019-05-05T10:42:58.970Z,12.59
2019-05-05T10:43:58.972Z,12.65
2019-05-05T10:44:58.938Z,12.53
2019-05-05T10:45:58.929Z,12.68
2019-05-05T10:46:58.922Z,12.64
2019-05-05T10:47:58.904Z,12.78
2019-05-05T10:48:59.842Z,12.82
2019-05-05T10:49:58.881Z,12.74
2019-05-05T10:50:58.903Z,12.85
2019-05-05T10:51:58.853Z,12.83
2019-05-05T10:52:58.859Z,12.83
2019-05-05T10:53:58.830Z,12.86
2019-05-05T10:54:58.842Z,12.96
2019-05-05T10:55:58.813Z,13.26
2019-05-05T10:56:58.800Z,13.38
2019-05-05T10:57:58.785Z,13.17
2019-05-05T10:58:58.774Z,13.22
2019-05-05T11:00:09.263Z,13.20
2019-05-05T11:00:59.755Z,13.63
2019-05-05T11:01:58.768Z,14.24
2019-05-05T11:02:59.473Z,14.84
2019-05-05T11:03:58.722Z,17.31
2019-05-05T11:04:58.723Z,19.02
2019-05-05T11:05:58.700Z,20.51
2019-05-05T11:06:58.715Z,21.84
2019-05-05T11:07:58.681Z,22.62
2019-05-05T11:08:58.664Z,22.51
2019-05-05T11:09:58.665Z,22.72
2019-05-05T11:10:58.640Z,22.62
2019-05-05T11:11:58.635Z,20.99
2019-05-05T11:12:58.617Z,20.18
2019-05-05T11:13:58.615Z,18.99
2019-05-05T11:14:58.615Z,17.64
2019-05-05T11:15:58.585Z,16.94
2019-05-05T11:16:58.582Z,16.35
2019-05-05T11:17:58.567Z,16.12
2019-05-05T11:18:58.567Z,15.86
2019-05-05T11:19:58.556Z,15.39
2019-05-05T11:20:58.536Z,14.95
2019-05-05T11:21:58.520Z,14.51
2019-05-05T11:22:58.514Z,14.12
2019-05-05T11:23:58.499Z,14.03
2019-05-05T11:25:01.113Z,13.89
2019-05-05T11:25:58.490Z,13.57
2019-05-05T11:26:58.465Z,13.49
2019-05-05T11:27:58.459Z,13.45
2019-05-05T11:28:58.452Z,13.29
2019-05-05T11:29:58.450Z,13.22
2019-05-05T11:30:58.428Z,13.23
2019-05-05T11:31:58.414Z,13.28
2019-05-05T11:32:58.403Z,13.39
2019-05-05T11:33:58.390Z,13.52
2019-05-05T11:34:58.381Z,14.51
2019-05-05T11:35:58.383Z,16.93
2019-05-05T11:36:58.353Z,19.02
2019-05-05T11:37:58.347Z,21.34
2019-05-05T11:38:58.343Z,22.43
2019-05-05T11:39:58.327Z,21.59
2019-05-05T11:40:58.326Z,20.57
2019-05-05T11:41:58.340Z,20.05
2019-05-05T11:42:58.291Z,19.19
2019-05-05T11:43:58.279Z,18.17
2019-05-05T11:44:58.269Z,17.37
2019-05-05T11:45:58.269Z,17.06
2019-05-05T11:46:58.282Z,16.48
2019-05-05T11:47:58.237Z,16.21
2019-05-05T11:48:58.221Z,16.04
2019-05-05T11:49:58.211Z,15.56
2019-05-05T11:50:58.258Z,15.14
2019-05-05T11:51:58.214Z,14.72
2019-05-05T11:52:58.182Z,14.50
2019-05-05T11:53:58.175Z,14.35
2019-05-05T11:55:08.849Z,13.87
2019-05-05T11:55:59.153Z,15.31
2019-05-05T11:56:58.135Z,17.51
2019-05-05T11:57:58.124Z,18.78
2019-05-05T11:58:58.113Z,19.99
2019-05-05T11:59:58.101Z,21.13
2019-05-05T12:00:58.097Z,21.96
2019-05-05T12:01:58.080Z,22.86
2019-05-05T12:02:58.071Z,22.28
2019-05-05T12:03:58.063Z,20.57
2019-05-05T12:04:58.055Z,18.63
2019-05-05T12:05:58.039Z,17.44
2019-05-05T12:06:58.051Z,16.60
2019-05-05T12:07:58.019Z,16.00
2019-05-05T12:08:58.014Z,15.51
2019-05-05T12:09:57.991Z,14.94
2019-05-05T12:10:57.979Z,14.64
2019-05-05T12:11:57.984Z,14.62
2019-05-05T12:12:57.963Z,14.40
2019-05-05T12:13:57.951Z,14.17
2019-05-05T12:14:57.969Z,14.07
2019-05-05T12:15:57.922Z,13.97
2019-05-05T12:16:57.926Z,13.77
2019-05-05T12:17:57.907Z,13.67
2019-05-05T12:18:57.889Z,13.78
2019-05-05T12:19:57.893Z,13.84
2019-05-05T12:20:57.883Z,14.07
2019-05-05T12:21:57.871Z,14.75
2019-05-05T12:22:57.847Z,15.14
2019-05-05T12:23:57.837Z,15.59
2019-05-05T12:24:57.832Z,15.39
2019-05-05T12:25:57.820Z,15.09
2019-05-05T12:26:57.825Z,14.84
2019-05-05T12:27:57.802Z,14.94
2019-05-05T12:28:57.779Z,14.62
2019-05-05T12:29:57.772Z,14.55
2019-05-05T12:30:57.769Z,14.51
2019-05-05T12:31:57.765Z,14.43
2019-05-05T12:32:57.744Z,14.36
2019-05-05T12:33:57.728Z,14.14
2019-05-05T12:34:57.722Z,14.04
2019-05-05T12:35:57.702Z,13.89
2019-05-05T12:36:57.704Z,13.63
2019-05-05T12:37:57.691Z,13.55
2019-05-05T12:38:57.666Z,13.45
2019-05-05T12:39:57.660Z,13.45
2019-05-05T12:40:57.655Z,13.52
2019-05-05T12:41:57.645Z,13.55
2019-05-05T12:42:57.622Z,13.71
2019-05-05T12:43:57.623Z,13.67
2019-05-05T12:44:57.604Z,13.81
2019-05-05T12:45:57.592Z,13.87
2019-05-05T12:46:57.582Z,14.03
2019-05-05T12:47:57.588Z,14.18
2019-05-05T12:48:57.563Z,14.35
2019-05-05T12:49:57.554Z,14.84
2019-05-05T12:50:57.537Z,15.29
2019-05-05T12:51:57.526Z,15.38
2019-05-05T12:52:57.524Z,15.51
2019-05-05T12:53:57.503Z,15.41
2019-05-05T12:54:57.501Z,15.53
2019-05-05T12:55:57.481Z,15.60
2019-05-05T12:56:57.470Z,15.62
2019-05-05T12:57:57.470Z,15.83
2019-05-05T12:58:57.444Z,16.08
2019-05-05T12:59:57.433Z,16.45
2019-05-05T13:00:57.419Z,16.60
2019-05-05T13:01:57.414Z,17.16
2019-05-05T13:02:57.406Z,17.90
2019-05-05T13:03:57.386Z,18.29
2019-05-05T13:04:57.375Z,19.37
2019-05-05T13:05:57.369Z,20.36
2019-05-05T13:06:57.366Z,20.77
2019-05-05T13:07:57.363Z,21.35
2019-05-05T13:08:57.337Z,21.06
2019-05-05T13:09:57.330Z,20.72